Latest Weather Observations for The Monument

IDQ60801

Issued at 7:06 pm EST Monday 22 December 2014 (issued every 30 minutes, with the page automatically refreshed every 10 minutes)

About weather observations | Map of weather stations | Latest weather observations for QLD | Other Formats
Station Details ID: 037034 Name: THE MONUMENT AIRPORT Lat: -21.81 Lon: 139.93 Height: 288.4 m
Data from the previous 72 hours. | See also: Recent months at The Monument
Date/Time
EST
Temp
°C
App
Temp
°C
Dew
Point
Rel
Hum
%
Delta-T
°C
Wind Press
QNH
hPa
Press
MSL
hPa
Rain
since 9 am
mm
Dir
 
Spd
km/h
Gust
km/h
Spd
kts
Gust
kts
22/07:00pm 34.9 32.2 15.7 31 12.2 NNE 24 30 13 16 1007.8 1005.6 0.0
22/06:30pm 35.6 32.4 15.3 29 12.9 NNE 26 33 14 18 1007.3 1005.1 0.0
22/06:00pm 36.1 32.9 15.2 28 13.3 NNE 26 39 14 21 1007.1 1004.9 0.0
22/05:30pm 36.3 32.2 14.9 28 13.5 NNE 30 39 16 21 1006.8 1004.5 0.0
22/05:00pm 35.4 31.0 15.2 30 12.8 NE 32 44 17 24 1006.8 1004.5 0.0
22/04:39pm 35.7 31.2 14.9 29 13.1 NE 32 50 17 27 1006.9 1004.7 0.0
22/04:30pm 36.7 33.5 15.2 27 13.7 NE 26 39 14 21 1007.0 1004.8 0.0
22/04:00pm 38.6 37.4 15.0 24 15.1 N 15 26 8 14 1006.9 1004.7 0.0
22/03:30pm 39.5 37.4 15.2 24 15.6 N 20 28 11 15 1007.3 1005.1 0.0
22/03:00pm 38.5 37.0 14.3 23 15.3 NNW 15 26 8 14 1007.7 1005.5 0.0
22/02:30pm 38.3 36.5 15.4 25 14.7 NNE 19 28 10 15 1008.2 1006.0 0.0
22/02:00pm 37.1 34.1 13.8 25 14.5 NNE 22 30 12 16 1008.8 1006.6 0.0
22/01:30pm 37.4 36.5 16.9 30 13.4 N 17 24 9 13 1009.1 1006.9 0.0
22/01:00pm 37.3 35.8 16.3 29 13.6 N 19 32 10 17 1009.8 1007.5 0.0
22/12:30pm 37.2 35.2 15.6 27 13.8 N 20 33 11 18 1010.4 1008.2 0.0
22/12:00pm 37.0 35.4 16.0 28 13.5 N 19 32 10 17 1010.7 1008.5 0.0
22/11:30am 36.3 34.9 17.0 32 12.5 N 20 33 11 18 1011.2 1009.0 0.0
22/11:00am 36.3 34.9 17.9 33 12.1 N 22 33 12 18 1011.5 1009.3 0.0
22/10:30am 35.0 32.9 17.2 34 11.6 N 24 37 13 20 1011.6 1009.4 0.0
22/10:00am 34.4 32.7 18.0 37 10.7 N 24 35 13 19 1011.7 1009.5 0.0
22/09:30am 33.4 32.0 18.7 41 9.7 N 24 35 13 19 1011.9 1009.7 0.0
22/09:00am 33.3 33.1 19.4 44 9.3 NNE 19 30 10 16 1011.9 1009.7 0.0
22/08:30am 32.3 33.1 19.9 48 8.3 N 15 20 8 11 1011.6 1009.4 0.0
22/08:00am 31.4 32.5 20.4 52 7.4 N 15 20 8 11 1011.4 1009.2 0.0
22/07:30am 30.2 31.3 20.4 55 6.6 NNE 15 19 8 10 1011.2 1009.0 0.0
22/07:00am 29.2 30.9 20.9 61 5.6 N 13 15 7 8 1011.0 1008.8 0.0
22/06:30am 28.1 30.3 21.1 65 4.7 NNE 11 15 6 8 1010.7 1008.5 0.0
22/06:00am 27.6 29.3 20.9 67 4.5 NNE 13 17 7 9 1010.2 1008.0 0.0
22/05:30am 27.9 29.3 21.0 66 4.6 NNE 15 20 8 11 1009.8 1007.5 0.0
22/05:00am 27.9 29.9 20.7 65 4.8 NNE 11 13 6 7 1009.5 1007.2 0.0
22/04:30am 27.8 29.5 20.9 66 4.6 NNE 13 17 7 9 1009.1 1006.9 0.0
22/04:00am 27.5 29.4 19.8 63 5.1 NE 9 11 5 6 1008.9 1006.7 0.0
22/03:30am 28.5 30.8 19.4 57 6.0 NNE 6 7 3 4 1008.7 1006.5 0.0
22/03:00am 29.7 31.3 20.0 56 6.5 N 11 17 6 9 1008.6 1006.4 0.0
22/02:30am 29.9 31.1 19.9 55 6.6 N 13 17 7 9 1008.6 1006.4 0.0
22/02:00am 30.1 31.4 20.1 55 6.7 N 13 19 7 10 1008.3 1006.1 0.0
22/01:30am 29.9 30.8 18.3 49 7.5 N 11 15 6 8 1008.3 1006.1 0.0
22/01:00am 30.4 30.8 18.2 48 7.9 NNE 13 17 7 9 1008.3 1006.1 0.0
22/12:30am 31.0 31.3 18.0 45 8.4 NNE 13 17 7 9 1008.6 1006.4 0.0
22/12:00am 31.3 31.1 17.6 44 8.9 NNE 15 20 8 11 1009.1 1006.9 0.0
 
Date/Time
EST
Temp
°C
App
Temp
°C
Dew
Point
Rel
Hum
%
Delta-T
°C
Wind Press
QNH
hPa
Press
MSL
hPa
Rain
since 9 am
mm
Dir
 
Spd
km/h
Gust
km/h
Spd
kts
Gust
kts
21/11:30pm 31.7 31.5 17.6 43 9.1 N 15 20 8 11 1009.2 1007.0 0.0
21/11:00pm 32.0 31.9 17.8 42 9.2 NNE 15 20 8 11 1009.2 1007.0 0.0
21/10:30pm 31.9 31.7 16.6 39 9.8 NNE 13 17 7 9 1009.1 1006.9 0.0
21/10:00pm 32.8 31.4 14.4 33 11.4 NE 15 19 8 10 1008.8 1006.6 0.0
21/09:30pm 32.6 30.9 11.2 27 12.6 NE 11 15 6 8 1008.6 1006.4 0.0
21/09:00pm 33.0 31.1 10.4 25 13.2 ENE 11 13 6 7 1008.3 1006.1 0.0
21/08:30pm 33.9 32.0 10.5 24 13.7 ENE 11 13 6 7 1008.2 1006.0 0.0
21/08:00pm 35.2 32.9 10.3 22 14.7 NE 13 17 7 9 1008.1 1005.9 0.0
21/07:30pm 36.1 33.4 10.3 21 15.2 E 15 22 8 12 1007.7 1005.5 0.0
21/07:00pm 37.0 35.4 8.8 18 16.4 NNW 7 9 4 5 1007.3 1005.1 0.0
21/06:30pm 37.4 37.2 9.1 18 16.5 CALM 0 7 0 4 1007.1 1004.9 0.0
21/06:00pm 37.8 36.7 8.6 17 17.0 SW 4 9 2 5 1006.9 1004.7 0.0
21/05:30pm 37.8 36.4 9.4 18 16.7 N 7 13 4 7 1006.9 1004.7 0.0
21/05:00pm 38.2 36.5 9.7 18 16.9 NNE 9 15 5 8 1006.9 1004.7 0.0
21/04:30pm 37.8 35.8 8.6 17 16.9 NNW 9 13 5 7 1007.2 1005.0 0.0
21/04:00pm 38.4 37.2 8.1 16 17.5 ENE 4 15 2 8 1007.4 1005.2 0.0
21/03:30pm 38.0 36.0 8.7 17 17.0 ESE 9 15 5 8 1007.9 1005.7 0.0
21/03:00pm 38.0 35.6 8.7 17 17.1 ESE 11 19 6 10 1008.2 1006.0 0.0
21/02:30pm 38.3 35.2 9.0 17 17.1 E 15 24 8 13 1008.5 1006.3 0.0
21/02:00pm 40.2 37.3 9.6 16 18.2 NNE 15 24 8 13 1008.8 1006.6 0.0
21/01:30pm 39.6 36.7 8.1 15 18.3 SSE 13 24 7 13 1009.3 1007.1 0.0
21/01:00pm 38.0 34.5 8.7 17 17.1 NNE 17 32 9 17 1010.1 1007.9 0.0
21/12:30pm 38.6 36.2 10.0 18 17.0 E 13 24 7 13 1010.6 1008.4 0.0
21/12:00pm 37.5 34.9 10.7 20 16.0 E 15 24 8 13 1011.0 1008.8 0.0
21/11:30am 38.0 35.4 11.9 21 15.9 NNE 17 30 9 16 1011.5 1009.3 0.0
21/11:00am 37.2 34.2 11.9 22 15.4 NE 19 30 10 16 1011.7 1009.5 0.0
21/10:30am 36.0 32.7 12.9 25 14.2 NNE 22 33 12 18 1011.9 1009.7 0.0
21/10:00am 35.2 31.7 13.4 27 13.4 NNE 24 35 13 19 1011.9 1009.7 0.0
21/09:30am 34.3 30.4 13.2 28 12.9 NNE 26 37 14 20 1011.8 1009.6 0.0
21/09:00am 33.5 29.9 13.0 29 12.5 NNE 24 35 13 19 1011.8 1009.6 0.0
21/08:30am 32.5 29.0 12.2 29 12.2 NNE 22 33 12 18 1011.5 1009.3 0.0
21/08:00am 31.1 28.2 11.0 29 11.8 N 17 24 9 13 1011.4 1009.2 0.0
21/07:30am 30.1 28.6 10.6 30 11.3 NNE 9 15 5 8 1010.9 1008.7 0.0
21/07:00am 27.5 28.1 11.9 38 9.1 CALM 0 0 0 0 1010.7 1008.5 0.0
21/06:30am 26.0 25.4 11.7 41 8.3 NW 6 9 3 5 1010.5 1008.3 0.0
21/06:00am 25.3 24.6 11.5 42 7.9 N 6 7 3 4 1010.0 1007.8 0.0
21/05:30am 24.4 23.0 11.0 43 7.6 NE 9 11 5 6 1009.6 1007.3 0.0
21/05:00am 25.0 22.9 11.2 42 7.9 NE 13 15 7 8 1009.0 1006.8 0.0
21/04:30am 25.4 24.3 10.8 40 8.3 N 7 11 4 6 1008.8 1006.6 0.0
21/04:00am 25.5 24.1 10.9 40 8.3 ENE 9 11 5 6 1008.8 1006.6 0.0
21/03:30am 26.4 24.6 10.9 38 8.9 ESE 11 13 6 7 1008.7 1006.5 0.0
21/03:00am 26.1 24.4 12.5 42 8.0 SE 13 17 7 9 1008.8 1006.6 0.0
21/02:30am 24.7 25.7 14.2 52 6.3 N 2 7 1 4 1008.8 1006.6 0.0
21/02:00am 26.3 27.1 12.7 43 8.0 CALM 0 0 0 0 1008.8 1006.6 0.0
21/01:30am 26.2 27.4 13.7 46 7.5 CALM 0 0 0 0 1009.0 1006.8 0.0
21/01:00am 27.4 28.5 13.4 42 8.4 CALM 0 0 0 0 1009.6 1007.3 0.0
21/12:30am 28.3 28.4 11.4 35 9.8 NNW 2 6 1 3 1009.9 1007.6 0.0
21/12:00am 29.4 28.2 11.5 33 10.5 SSW 9 13 5 7 1010.0 1007.8 0.0
 
Date/Time
EST
Temp
°C
App
Temp
°C
Dew
Point
Rel
Hum
%
Delta-T
°C
Wind Press
QNH
hPa
Press
MSL
hPa
Rain
since 9 am
mm
Dir
 
Spd
km/h
Gust
km/h
Spd
kts
Gust
kts
20/11:30pm 28.5 27.7 11.6 35 9.9 E 7 7 4 4 1010.1 1007.9 0.0
20/11:00pm 29.3 28.2 9.9 30 11.1 ENE 6 7 3 4 1010.1 1007.9 0.0
20/10:30pm 29.8 28.5 9.3 28 11.6 ENE 6 7 3 4 1010.1 1007.9 0.0
20/10:00pm 29.7 28.8 10.8 31 11.0 ENE 6 9 3 5 1010.1 1007.9 0.0
20/09:30pm 30.8 29.2 10.2 28 11.9 ESE 9 9 5 5 1009.9 1007.6 0.0
20/09:00pm 31.0 29.5 10.4 28 11.9 ESE 9 9 5 5 1009.7 1007.4 0.0
20/08:30pm 31.8 30.3 9.3 25 12.8 ESE 7 9 4 5 1009.6 1007.3 0.0
20/08:00pm 33.2 30.8 7.2 20 14.5 SE 9 11 5 6 1009.3 1007.1 0.0
20/07:30pm 34.4 31.7 5.8 17 15.6 SSE 9 11 5 6 1008.9 1006.7 0.0
20/07:00pm 35.9 32.3 5.2 15 16.8 SE 13 17 7 9 1008.7 1006.5 0.0
20/06:30pm 37.0 33.0 5.1 14 17.5 SE 15 24 8 13 1008.5 1006.3 0.0
20/06:00pm 37.8 34.6 6.7 15 17.6 SSE 13 17 7 9 1008.2 1006.0 0.0
20/05:30pm 38.2 34.1 6.0 14 18.0 SE 17 24 9 13 1008.2 1006.0 0.0
20/05:00pm 38.0 34.6 5.9 14 17.9 S 13 20 7 11 1008.2 1006.0 0.0
20/04:30pm 38.5 34.8 6.3 14 18.1 S 15 26 8 14 1008.3 1006.1 0.0
20/04:00pm 37.7 35.2 4.6 13 18.1 WSW 7 13 4 7 1008.5 1006.3 0.0
20/03:30pm 37.7 34.2 5.6 14 17.8 SE 13 30 7 16 1008.9 1006.7 0.0
20/03:00pm 37.8 34.0 5.7 14 17.9 SE 15 24 8 13 1009.5 1007.2 0.0
20/02:30pm 37.5 34.0 5.5 14 17.7 S 13 28 7 15 1009.8 1007.5 0.0
20/02:00pm 37.7 33.1 5.6 14 17.8 SSE 19 30 10 16 1010.2 1008.0 0.0
20/01:30pm 36.5 33.6 4.7 14 17.3 E 9 15 5 8 1010.6 1008.4 0.0
20/01:00pm 38.1 35.1 7.9 16 17.4 SSE 13 28 7 15 1011.1 1008.9 0.0
20/12:30pm 37.7 33.9 7.6 16 17.2 SSE 17 26 9 14 1011.7 1009.5 0.0
20/12:00pm 36.5 33.2 6.6 16 16.7 SSE 13 30 7 16 1012.1 1009.9 0.0
20/11:30am 36.9 34.3 7.8 17 16.6 ENE 11 20 6 11 1012.4 1010.2 0.0
20/11:00am 36.4 32.4 8.3 18 16.1 E 19 35 10 19 1012.7 1010.5 0.0
20/10:30am 35.6 31.2 7.6 18 15.8 E 20 32 11 17 1013.1 1010.8 0.0
20/10:00am 34.7 30.4 6.9 18 15.5 ENE 19 26 10 14 1013.4 1011.2 0.0
20/09:30am 32.9 28.2 7.7 21 14.1 ENE 22 32 12 17 1013.5 1011.3 0.0
20/09:00am 32.4 27.5 8.6 23 13.5 ENE 24 32 13 17 1013.6 1011.4 0.0
20/08:30am 31.9 27.7 8.2 23 13.3 E 20 28 11 15 1013.6 1011.4 0.0
20/08:00am 30.6 28.1 8.3 25 12.5 E 11 17 6 9 1013.5 1011.3 0.0
20/07:30am 27.9 26.5 9.7 32 10.3 ESE 7 11 4 6 1013.4 1011.2 0.0
20/07:00am 26.1 25.1 11.1 39 8.6 SSE 7 9 4 5 1012.9 1010.7 0.0
20/06:30am 24.0 23.3 11.3 45 7.2 SE 6 7 3 4 1012.6 1010.4 0.0
20/06:00am 22.7 21.7 11.1 48 6.5 SE 7 9 4 5 1012.3 1010.1 0.0
20/05:30am 22.5 21.9 11.6 50 6.2 SE 6 7 3 4 1012.0 1009.8 0.0
20/05:00am 22.9 21.9 11.0 47 6.7 SE 7 9 4 5 1011.7 1009.5 0.0
20/04:30am 23.4 22.1 9.8 42 7.5 SE 7 9 4 5 1011.3 1009.1 0.0
20/04:00am 23.9 22.4 10.6 43 7.5 SSE 9 11 5 6 1011.2 1009.0 0.0
20/03:30am 24.0 22.2 9.6 40 7.9 SE 9 9 5 5 1011.3 1009.1 0.0
20/03:00am 25.3 22.8 9.6 37 8.7 SE 13 15 7 8 1011.3 1009.1 0.0
20/02:30am 25.7 23.9 9.5 36 9.0 ESE 9 13 5 7 1011.5 1009.3 0.0
20/02:00am 26.2 23.4 8.7 33 9.6 SSE 13 17 7 9 1011.6 1009.4 0.0
20/01:30am 27.0 23.9 8.9 32 10.0 SSE 15 17 8 9 1011.7 1009.5 0.0
20/01:00am 27.4 24.7 8.8 31 10.3 SSE 13 17 7 9 1012.0 1009.8 0.0
20/12:30am 27.3 25.8 9.2 32 10.1 SSE 7 11 4 6 1012.4 1010.2 0.0
20/12:00am 28.2 25.9 9.0 30 10.7 SSE 11 15 6 8 1012.8 1010.6 0.0
 
Date/Time
EST
Temp
°C
App
Temp
°C
Dew
Point
Rel
Hum
%
Delta-T
°C
Wind Press
QNH
hPa
Press
MSL
hPa
Rain
since 9 am
mm
Dir
 
Spd
km/h
Gust
km/h
Spd
kts
Gust
kts
19/11:30pm 28.8 26.1 9.0 29 11.1 SSE 13 17 7 9 1013.4 1011.2 0.0
19/11:00pm 29.7 26.7 9.3 28 11.5 SSE 15 20 8 11 1013.5 1011.3 0.0
19/10:30pm 30.1 26.7 9.1 27 11.9 SSE 17 20 9 11 1013.5 1011.3 0.0
19/10:00pm 30.7 27.3 9.0 26 12.3 SSE 17 22 9 12 1013.2 1011.0 0.0
19/09:30pm 31.4 27.5 9.6 26 12.5 SSE 20 26 11 14 1012.8 1010.6 0.0
19/09:00pm 31.8 28.4 10.5 27 12.4 SSE 19 24 10 13 1012.7 1010.5 0.0
19/08:30pm 31.9 29.1 10.0 26 12.6 SSE 15 22 8 12 1012.4 1010.2 0.0
19/08:00pm 32.2 29.9 10.3 26 12.7 SE 13 17 7 9 1011.9 1009.7 0.0
19/07:30pm 33.2 30.4 9.9 24 13.5 ESE 15 20 8 11 1011.4 1009.2 0.0

Other Formats:

Comma delimited format used in spreadsheet applications
http://www.bom.gov.au/fwo/IDQ60801/IDQ60801.94336.axf

JavaScript Object Notation format (JSON) in row-major order
http://www.bom.gov.au/fwo/IDQ60801/IDQ60801.94336.json